sensor_id;sensor_type;location;lat;lon;timestamp;P1;durP1;ratioP1;P2;durP2;ratioP2
65597;SDS011;52267;51.984;20.956;2023-07-28T00:02:05;9.30;;;6.30;;
65597;SDS011;52267;51.984;20.956;2023-07-28T00:04:34;8.60;;;6.30;;
65597;SDS011;52267;51.984;20.956;2023-07-28T00:07:03;9.90;;;7.20;;
65597;SDS011;52267;51.984;20.956;2023-07-28T00:09:31;7.50;;;6.00;;
65597;SDS011;52267;51.984;20.956;2023-07-28T00:11:59;8.90;;;5.70;;
65597;SDS011;52267;51.984;20.956;2023-07-28T00:14:27;7.00;;;6.00;;
65597;SDS011;52267;51.984;20.956;2023-07-28T00:16:56;8.70;;;5.90;;
65597;SDS011;52267;51.984;20.956;2023-07-28T00:19:23;8.10;;;5.90;;
65597;SDS011;52267;51.984;20.956;2023-07-28T00:21:51;7.60;;;5.80;;
65597;SDS011;52267;51.984;20.956;2023-07-28T00:24:18;8.90;;;6.30;;
65597;SDS011;52267;51.984;20.956;2023-07-28T00:26:45;7.20;;;5.70;;
65597;SDS011;52267;51.984;20.956;2023-07-28T00:29:12;8.80;;;5.70;;
65597;SDS011;52267;51.984;20.956;2023-07-28T00:31:39;9.70;;;6.00;;
65597;SDS011;52267;51.984;20.956;2023-07-28T00:34:07;8.80;;;5.70;;
65597;SDS011;52267;51.984;20.956;2023-07-28T00:36:34;8.00;;;5.70;;
65597;SDS011;52267;51.984;20.956;2023-07-28T00:39:01;8.30;;;5.40;;
65597;SDS011;52267;51.984;20.956;2023-07-28T00:41:28;9.60;;;5.80;;
65597;SDS011;52267;51.984;20.956;2023-07-28T00:43:55;7.60;;;5.80;;
65597;SDS011;52267;51.984;20.956;2023-07-28T00:46:22;9.30;;;5.90;;
65597;SDS011;52267;51.984;20.956;2023-07-28T00:48:49;6.50;;;5.00;;
65597;SDS011;52267;51.984;20.956;2023-07-28T00:51:16;7.00;;;5.30;;
65597;SDS011;52267;51.984;20.956;2023-07-28T00:53:43;7.70;;;5.80;;
65597;SDS011;52267;51.984;20.956;2023-07-28T00:56:11;7.20;;;5.70;;
65597;SDS011;52267;51.984;20.956;2023-07-28T00:58:39;8.70;;;5.50;;
65597;SDS011;52267;51.984;20.956;2023-07-28T01:01:06;9.10;;;5.60;;
65597;SDS011;52267;51.984;20.956;2023-07-28T01:03:33;7.60;;;5.10;;
65597;SDS011;52267;51.984;20.956;2023-07-28T01:09:12;7.10;;;5.20;;
65597;SDS011;52267;51.984;20.956;2023-07-28T01:11:54;7.80;;;5.20;;
65597;SDS011;52267;51.984;20.956;2023-07-28T01:14:22;9.10;;;5.90;;
65597;SDS011;52267;51.984;20.956;2023-07-28T01:16:50;6.90;;;5.00;;
65597;SDS011;52267;51.984;20.956;2023-07-28T01:19:20;8.10;;;5.60;;
65597;SDS011;52267;51.984;20.956;2023-07-28T01:21:54;7.40;;;5.20;;
65597;SDS011;52267;51.984;20.956;2023-07-28T01:24:42;6.70;;;4.80;;
65597;SDS011;52267;51.984;20.956;2023-07-28T01:27:18;7.90;;;5.20;;
65597;SDS011;52267;51.984;20.956;2023-07-28T01:29:46;7.20;;;5.40;;
65597;SDS011;52267;51.984;20.956;2023-07-28T01:32:14;7.50;;;6.10;;
65597;SDS011;52267;51.984;20.956;2023-07-28T01:34:41;9.50;;;5.70;;
65597;SDS011;52267;51.984;20.956;2023-07-28T01:37:08;8.70;;;6.00;;
65597;SDS011;52267;51.984;20.956;2023-07-28T01:39:35;7.70;;;5.00;;
65597;SDS011;52267;51.984;20.956;2023-07-28T01:42:02;8.90;;;5.90;;
65597;SDS011;52267;51.984;20.956;2023-07-28T01:44:29;9.00;;;5.70;;
65597;SDS011;52267;51.984;20.956;2023-07-28T01:46:56;9.50;;;5.60;;
65597;SDS011;52267;51.984;20.956;2023-07-28T01:49:23;9.50;;;5.70;;
65597;SDS011;52267;51.984;20.956;2023-07-28T01:51:50;7.60;;;6.30;;
65597;SDS011;52267;51.984;20.956;2023-07-28T01:54:17;9.40;;;6.20;;
65597;SDS011;52267;51.984;20.956;2023-07-28T01:56:44;11.90;;;6.00;;
65597;SDS011;52267;51.984;20.956;2023-07-28T01:59:11;7.30;;;5.60;;
65597;SDS011;52267;51.984;20.956;2023-07-28T02:01:39;8.20;;;6.10;;
65597;SDS011;52267;51.984;20.956;2023-07-28T02:04:06;8.60;;;5.50;;
65597;SDS011;52267;51.984;20.956;2023-07-28T02:06:34;8.20;;;6.20;;
65597;SDS011;52267;51.984;20.956;2023-07-28T02:09:01;7.90;;;5.70;;
65597;SDS011;52267;51.984;20.956;2023-07-28T02:11:28;7.30;;;5.90;;
65597;SDS011;52267;51.984;20.956;2023-07-28T02:13:55;7.80;;;5.70;;
65597;SDS011;52267;51.984;20.956;2023-07-28T02:16:22;11.80;;;6.60;;
65597;SDS011;52267;51.984;20.956;2023-07-28T02:18:49;9.30;;;5.70;;
65597;SDS011;52267;51.984;20.956;2023-07-28T02:21:16;8.10;;;5.70;;
65597;SDS011;52267;51.984;20.956;2023-07-28T02:23:43;10.30;;;5.60;;
65597;SDS011;52267;51.984;20.956;2023-07-28T02:26:10;6.80;;;6.00;;
65597;SDS011;52267;51.984;20.956;2023-07-28T02:28:37;8.60;;;5.80;;
65597;SDS011;52267;51.984;20.956;2023-07-28T02:31:04;7.90;;;5.90;;
65597;SDS011;52267;51.984;20.956;2023-07-28T02:33:31;8.30;;;6.10;;
65597;SDS011;52267;51.984;20.956;2023-07-28T02:36:06;8.40;;;6.50;;
65597;SDS011;52267;51.984;20.956;2023-07-28T02:38:33;8.70;;;5.80;;
65597;SDS011;52267;51.984;20.956;2023-07-28T02:41:00;8.90;;;6.40;;
65597;SDS011;52267;51.984;20.956;2023-07-28T02:43:27;8.10;;;6.70;;
65597;SDS011;52267;51.984;20.956;2023-07-28T02:45:55;9.90;;;7.30;;
65597;SDS011;52267;51.984;20.956;2023-07-28T02:48:23;8.10;;;6.30;;
65597;SDS011;52267;51.984;20.956;2023-07-28T02:50:50;9.40;;;6.10;;
65597;SDS011;52267;51.984;20.956;2023-07-28T02:53:19;10.30;;;6.40;;
65597;SDS011;52267;51.984;20.956;2023-07-28T02:55:47;8.90;;;7.00;;
65597;SDS011;52267;51.984;20.956;2023-07-28T02:58:15;8.00;;;5.70;;
65597;SDS011;52267;51.984;20.956;2023-07-28T03:00:43;8.20;;;6.00;;
65597;SDS011;52267;51.984;20.956;2023-07-28T03:03:11;8.10;;;6.20;;
65597;SDS011;52267;51.984;20.956;2023-07-28T03:05:39;7.90;;;6.40;;
65597;SDS011;52267;51.984;20.956;2023-07-28T03:08:06;7.60;;;6.40;;
65597;SDS011;52267;51.984;20.956;2023-07-28T03:10:33;9.90;;;6.80;;
65597;SDS011;52267;51.984;20.956;2023-07-28T03:13:00;8.70;;;6.10;;
65597;SDS011;52267;51.984;20.956;2023-07-28T03:15:27;7.70;;;6.00;;
65597;SDS011;52267;51.984;20.956;2023-07-28T03:17:54;9.20;;;6.20;;
65597;SDS011;52267;51.984;20.956;2023-07-28T03:20:21;8.80;;;6.20;;
65597;SDS011;52267;51.984;20.956;2023-07-28T03:22:48;7.40;;;6.00;;
65597;SDS011;52267;51.984;20.956;2023-07-28T03:25:15;9.00;;;6.50;;
65597;SDS011;52267;51.984;20.956;2023-07-28T03:27:42;11.90;;;7.00;;
65597;SDS011;52267;51.984;20.956;2023-07-28T03:30:10;8.90;;;5.90;;
65597;SDS011;52267;51.984;20.956;2023-07-28T03:32:37;8.70;;;6.60;;
65597;SDS011;52267;51.984;20.956;2023-07-28T03:35:04;8.60;;;5.60;;
65597;SDS011;52267;51.984;20.956;2023-07-28T03:37:32;8.40;;;6.00;;
65597;SDS011;52267;51.984;20.956;2023-07-28T03:40:00;8.60;;;6.10;;
65597;SDS011;52267;51.984;20.956;2023-07-28T03:42:27;8.40;;;6.10;;
65597;SDS011;52267;51.984;20.956;2023-07-28T03:44:54;9.80;;;5.80;;
65597;SDS011;52267;51.984;20.956;2023-07-28T03:47:21;7.70;;;6.40;;
65597;SDS011;52267;51.984;20.956;2023-07-28T03:49:48;8.60;;;6.10;;
65597;SDS011;52267;51.984;20.956;2023-07-28T03:52:16;7.10;;;5.30;;
65597;SDS011;52267;51.984;20.956;2023-07-28T03:54:43;8.70;;;5.80;;
65597;SDS011;52267;51.984;20.956;2023-07-28T03:57:10;7.10;;;6.20;;
65597;SDS011;52267;51.984;20.956;2023-07-28T03:59:37;7.60;;;5.70;;
65597;SDS011;52267;51.984;20.956;2023-07-28T04:02:04;8.20;;;5.90;;
65597;SDS011;52267;51.984;20.956;2023-07-28T04:04:31;6.40;;;5.10;;
65597;SDS011;52267;51.984;20.956;2023-07-28T04:06:58;6.50;;;5.60;;
65597;SDS011;52267;51.984;20.956;2023-07-28T04:09:26;6.50;;;4.80;;
65597;SDS011;52267;51.984;20.956;2023-07-28T04:11:53;7.60;;;5.60;;
65597;SDS011;52267;51.984;20.956;2023-07-28T04:14:20;7.00;;;5.50;;
65597;SDS011;52267;51.984;20.956;2023-07-28T04:16:47;7.40;;;5.20;;
65597;SDS011;52267;51.984;20.956;2023-07-28T04:19:14;6.40;;;5.20;;
65597;SDS011;52267;51.984;20.956;2023-07-28T04:21:41;6.90;;;5.40;;
65597;SDS011;52267;51.984;20.956;2023-07-28T04:24:09;6.70;;;5.00;;
65597;SDS011;52267;51.984;20.956;2023-07-28T04:26:36;6.80;;;5.10;;
65597;SDS011;52267;51.984;20.956;2023-07-28T04:29:04;5.90;;;4.50;;
65597;SDS011;52267;51.984;20.956;2023-07-28T04:31:31;7.80;;;5.20;;
65597;SDS011;52267;51.984;20.956;2023-07-28T04:33:58;6.50;;;4.60;;
65597;SDS011;52267;51.984;20.956;2023-07-28T04:36:25;6.70;;;4.40;;
65597;SDS011;52267;51.984;20.956;2023-07-28T04:38:52;8.50;;;4.90;;
65597;SDS011;52267;51.984;20.956;2023-07-28T04:41:19;5.40;;;3.70;;
65597;SDS011;52267;51.984;20.956;2023-07-28T04:43:46;7.40;;;4.60;;
65597;SDS011;52267;51.984;20.956;2023-07-28T04:46:13;6.40;;;3.80;;
65597;SDS011;52267;51.984;20.956;2023-07-28T04:48:42;5.90;;;4.50;;
65597;SDS011;52267;51.984;20.956;2023-07-28T04:51:09;7.60;;;4.80;;
65597;SDS011;52267;51.984;20.956;2023-07-28T04:53:36;7.30;;;5.10;;
65597;SDS011;52267;51.984;20.956;2023-07-28T04:56:03;5.60;;;3.80;;
65597;SDS011;52267;51.984;20.956;2023-07-28T04:58:30;5.90;;;4.00;;
65597;SDS011;52267;51.984;20.956;2023-07-28T05:00:57;6.00;;;4.50;;
65597;SDS011;52267;51.984;20.956;2023-07-28T05:03:25;7.80;;;4.00;;
65597;SDS011;52267;51.984;20.956;2023-07-28T05:05:52;6.80;;;4.30;;
65597;SDS011;52267;51.984;20.956;2023-07-28T05:08:19;9.50;;;4.30;;
65597;SDS011;52267;51.984;20.956;2023-07-28T05:10:48;8.50;;;3.80;;
65597;SDS011;52267;51.984;20.956;2023-07-28T05:13:15;6.70;;;4.40;;
65597;SDS011;52267;51.984;20.956;2023-07-28T05:15:42;5.30;;;3.80;;
65597;SDS011;52267;51.984;20.956;2023-07-28T05:18:09;6.80;;;3.80;;
65597;SDS011;52267;51.984;20.956;2023-07-28T05:20:36;6.20;;;4.00;;
65597;SDS011;52267;51.984;20.956;2023-07-28T05:23:03;5.60;;;3.90;;
65597;SDS011;52267;51.984;20.956;2023-07-28T05:25:30;6.90;;;3.80;;
65597;SDS011;52267;51.984;20.956;2023-07-28T05:27:57;7.10;;;4.20;;
65597;SDS011;52267;51.984;20.956;2023-07-28T05:30:25;6.60;;;4.30;;
65597;SDS011;52267;51.984;20.956;2023-07-28T05:32:54;6.10;;;4.00;;
65597;SDS011;52267;51.984;20.956;2023-07-28T05:35:21;6.10;;;3.50;;
65597;SDS011;52267;51.984;20.956;2023-07-28T05:37:48;5.70;;;3.70;;
65597;SDS011;52267;51.984;20.956;2023-07-28T05:40:15;6.10;;;3.80;;
65597;SDS011;52267;51.984;20.956;2023-07-28T05:42:42;5.00;;;3.50;;
65597;SDS011;52267;51.984;20.956;2023-07-28T05:45:09;7.70;;;3.80;;
65597;SDS011;52267;51.984;20.956;2023-07-28T05:47:37;7.30;;;3.70;;
65597;SDS011;52267;51.984;20.956;2023-07-28T05:50:04;6.60;;;3.50;;
65597;SDS011;52267;51.984;20.956;2023-07-28T05:52:32;5.30;;;3.50;;
65597;SDS011;52267;51.984;20.956;2023-07-28T05:54:59;6.50;;;4.10;;
65597;SDS011;52267;51.984;20.956;2023-07-28T05:57:26;6.50;;;3.80;;
65597;SDS011;52267;51.984;20.956;2023-07-28T05:59:53;7.10;;;3.80;;
65597;SDS011;52267;51.984;20.956;2023-07-28T06:02:20;5.10;;;3.70;;
65597;SDS011;52267;51.984;20.956;2023-07-28T06:04:47;5.70;;;4.00;;
65597;SDS011;52267;51.984;20.956;2023-07-28T06:07:14;5.90;;;3.40;;
65597;SDS011;52267;51.984;20.956;2023-07-28T06:09:41;7.50;;;3.40;;
65597;SDS011;52267;51.984;20.956;2023-07-28T06:12:09;5.20;;;3.50;;
65597;SDS011;52267;51.984;20.956;2023-07-28T06:14:36;7.00;;;3.60;;
65597;SDS011;52267;51.984;20.956;2023-07-28T06:17:04;6.70;;;3.80;;
65597;SDS011;52267;51.984;20.956;2023-07-28T06:19:31;5.70;;;3.60;;
65597;SDS011;52267;51.984;20.956;2023-07-28T06:21:58;8.00;;;5.90;;
65597;SDS011;52267;51.984;20.956;2023-07-28T06:24:25;7.70;;;4.80;;
65597;SDS011;52267;51.984;20.956;2023-07-28T06:26:52;6.10;;;3.60;;
65597;SDS011;52267;51.984;20.956;2023-07-28T06:29:19;6.40;;;3.90;;
65597;SDS011;52267;51.984;20.956;2023-07-28T06:31:46;7.20;;;3.70;;
65597;SDS011;52267;51.984;20.956;2023-07-28T06:34:13;5.50;;;3.50;;
65597;SDS011;52267;51.984;20.956;2023-07-28T06:36:40;5.40;;;3.10;;
65597;SDS011;52267;51.984;20.956;2023-07-28T06:39:08;7.30;;;3.80;;
65597;SDS011;52267;51.984;20.956;2023-07-28T06:41:35;4.80;;;3.40;;
65597;SDS011;52267;51.984;20.956;2023-07-28T06:44:02;4.40;;;3.40;;
65597;SDS011;52267;51.984;20.956;2023-07-28T06:46:29;6.50;;;3.60;;
65597;SDS011;52267;51.984;20.956;2023-07-28T06:48:57;6.40;;;3.80;;
65597;SDS011;52267;51.984;20.956;2023-07-28T06:51:24;7.60;;;4.10;;
65597;SDS011;52267;51.984;20.956;2023-07-28T06:53:51;5.90;;;3.80;;
65597;SDS011;52267;51.984;20.956;2023-07-28T06:56:38;6.80;;;4.00;;
65597;SDS011;52267;51.984;20.956;2023-07-28T06:59:07;7.30;;;3.80;;
65597;SDS011;52267;51.984;20.956;2023-07-28T07:01:34;6.10;;;4.00;;
65597;SDS011;52267;51.984;20.956;2023-07-28T07:04:09;6.60;;;4.90;;
65597;SDS011;52267;51.984;20.956;2023-07-28T07:06:37;9.30;;;3.50;;
65597;SDS011;52267;51.984;20.956;2023-07-28T07:09:04;5.10;;;3.60;;
65597;SDS011;52267;51.984;20.956;2023-07-28T07:11:32;5.70;;;3.60;;
65597;SDS011;52267;51.984;20.956;2023-07-28T07:13:59;7.70;;;3.90;;
65597;SDS011;52267;51.984;20.956;2023-07-28T07:16:26;5.90;;;3.80;;
65597;SDS011;52267;51.984;20.956;2023-07-28T07:18:54;7.30;;;4.20;;
65597;SDS011;52267;51.984;20.956;2023-07-28T07:21:21;5.90;;;3.80;;
65597;SDS011;52267;51.984;20.956;2023-07-28T07:23:48;7.30;;;4.30;;
65597;SDS011;52267;51.984;20.956;2023-07-28T07:26:15;5.60;;;4.50;;
65597;SDS011;52267;51.984;20.956;2023-07-28T07:28:42;6.80;;;3.90;;
65597;SDS011;52267;51.984;20.956;2023-07-28T07:31:13;5.00;;;3.80;;
65597;SDS011;52267;51.984;20.956;2023-07-28T07:36:13;7.60;;;4.40;;
65597;SDS011;52267;51.984;20.956;2023-07-28T07:38:40;7.40;;;4.10;;
65597;SDS011;52267;51.984;20.956;2023-07-28T07:41:08;10.90;;;5.20;;
65597;SDS011;52267;51.984;20.956;2023-07-28T07:43:39;7.10;;;3.90;;
65597;SDS011;52267;51.984;20.956;2023-07-28T07:46:06;8.80;;;4.70;;
65597;SDS011;52267;51.984;20.956;2023-07-28T07:48:33;6.70;;;4.30;;
65597;SDS011;52267;51.984;20.956;2023-07-28T07:51:00;6.80;;;3.70;;
65597;SDS011;52267;51.984;20.956;2023-07-28T07:53:27;7.80;;;4.40;;
65597;SDS011;52267;51.984;20.956;2023-07-28T07:55:54;6.60;;;4.50;;
65597;SDS011;52267;51.984;20.956;2023-07-28T07:58:21;7.10;;;4.00;;
65597;SDS011;52267;51.984;20.956;2023-07-28T08:00:48;5.80;;;4.20;;
65597;SDS011;52267;51.984;20.956;2023-07-28T08:03:15;6.10;;;4.20;;
65597;SDS011;52267;51.984;20.956;2023-07-28T08:05:42;6.70;;;4.20;;
65597;SDS011;52267;51.984;20.956;2023-07-28T08:08:09;6.80;;;4.50;;
65597;SDS011;52267;51.984;20.956;2023-07-28T08:10:38;6.60;;;4.30;;
65597;SDS011;52267;51.984;20.956;2023-07-28T08:13:06;6.60;;;4.60;;
65597;SDS011;52267;51.984;20.956;2023-07-28T08:15:33;7.00;;;4.50;;
65597;SDS011;52267;51.984;20.956;2023-07-28T08:18:00;8.60;;;5.10;;
65597;SDS011;52267;51.984;20.956;2023-07-28T08:20:27;7.60;;;4.50;;
65597;SDS011;52267;51.984;20.956;2023-07-28T08:22:55;5.60;;;3.90;;
65597;SDS011;52267;51.984;20.956;2023-07-28T08:25:22;5.10;;;3.70;;
65597;SDS011;52267;51.984;20.956;2023-07-28T08:27:51;5.60;;;4.10;;
65597;SDS011;52267;51.984;20.956;2023-07-28T08:30:19;6.20;;;4.00;;
65597;SDS011;52267;51.984;20.956;2023-07-28T08:32:46;7.00;;;5.00;;
65597;SDS011;52267;51.984;20.956;2023-07-28T08:35:13;5.70;;;4.00;;
65597;SDS011;52267;51.984;20.956;2023-07-28T08:37:40;7.00;;;4.60;;
65597;SDS011;52267;51.984;20.956;2023-07-28T08:40:08;5.70;;;4.00;;
65597;SDS011;52267;51.984;20.956;2023-07-28T08:42:39;6.10;;;3.90;;
65597;SDS011;52267;51.984;20.956;2023-07-28T08:45:07;6.20;;;3.80;;
65597;SDS011;52267;51.984;20.956;2023-07-28T08:47:36;6.40;;;4.20;;
65597;SDS011;52267;51.984;20.956;2023-07-28T08:50:04;5.90;;;3.50;;
65597;SDS011;52267;51.984;20.956;2023-07-28T08:52:32;7.40;;;3.70;;
65597;SDS011;52267;51.984;20.956;2023-07-28T08:54:59;7.00;;;4.40;;
65597;SDS011;52267;51.984;20.956;2023-07-28T08:57:27;6.10;;;3.80;;
65597;SDS011;52267;51.984;20.956;2023-07-28T08:59:55;6.10;;;3.70;;
65597;SDS011;52267;51.984;20.956;2023-07-28T09:02:22;4.90;;;3.60;;
65597;SDS011;52267;51.984;20.956;2023-07-28T09:04:49;6.20;;;4.10;;
65597;SDS011;52267;51.984;20.956;2023-07-28T09:07:16;5.70;;;3.90;;
65597;SDS011;52267;51.984;20.956;2023-07-28T09:09:44;6.10;;;4.50;;
65597;SDS011;52267;51.984;20.956;2023-07-28T09:12:11;6.50;;;4.20;;
65597;SDS011;52267;51.984;20.956;2023-07-28T09:14:38;7.10;;;4.30;;
65597;SDS011;52267;51.984;20.956;2023-07-28T09:17:10;8.50;;;4.10;;
65597;SDS011;52267;51.984;20.956;2023-07-28T09:19:56;7.90;;;4.00;;
65597;SDS011;52267;51.984;20.956;2023-07-28T09:22:23;6.50;;;4.10;;
65597;SDS011;52267;51.984;20.956;2023-07-28T09:24:51;7.40;;;5.00;;
65597;SDS011;52267;51.984;20.956;2023-07-28T09:27:25;7.60;;;4.40;;
65597;SDS011;52267;51.984;20.956;2023-07-28T09:29:54;7.00;;;4.70;;
65597;SDS011;52267;51.984;20.956;2023-07-28T09:32:32;6.30;;;4.10;;
65597;SDS011;52267;51.984;20.956;2023-07-28T09:35:14;5.20;;;3.80;;
65597;SDS011;52267;51.984;20.956;2023-07-28T09:37:45;7.00;;;4.30;;
65597;SDS011;52267;51.984;20.956;2023-07-28T09:40:18;4.90;;;3.70;;
65597;SDS011;52267;51.984;20.956;2023-07-28T09:42:49;5.30;;;4.10;;
65597;SDS011;52267;51.984;20.956;2023-07-28T09:45:18;6.10;;;4.10;;
65597;SDS011;52267;51.984;20.956;2023-07-28T09:47:46;6.50;;;4.10;;
65597;SDS011;52267;51.984;20.956;2023-07-28T09:50:16;5.80;;;3.90;;
65597;SDS011;52267;51.984;20.956;2023-07-28T09:52:48;7.00;;;4.20;;
65597;SDS011;52267;51.984;20.956;2023-07-28T09:55:17;5.40;;;3.50;;
65597;SDS011;52267;51.984;20.956;2023-07-28T09:57:46;5.00;;;3.10;;
65597;SDS011;52267;51.984;20.956;2023-07-28T10:00:18;5.70;;;3.80;;
65597;SDS011;52267;51.984;20.956;2023-07-28T10:02:48;8.70;;;4.60;;
65597;SDS011;52267;51.984;20.956;2023-07-28T10:05:16;6.40;;;4.30;;
65597;SDS011;52267;51.984;20.956;2023-07-28T10:07:44;8.90;;;4.00;;
65597;SDS011;52267;51.984;20.956;2023-07-28T10:10:13;8.80;;;3.70;;
65597;SDS011;52267;51.984;20.956;2023-07-28T10:12:51;6.10;;;4.10;;
65597;SDS011;52267;51.984;20.956;2023-07-28T10:15:20;6.30;;;4.10;;
65597;SDS011;52267;51.984;20.956;2023-07-28T10:17:50;8.00;;;4.80;;
65597;SDS011;52267;51.984;20.956;2023-07-28T10:20:42;5.90;;;4.00;;
65597;SDS011;52267;51.984;20.956;2023-07-28T10:23:22;6.70;;;4.40;;
65597;SDS011;52267;51.984;20.956;2023-07-28T10:25:58;7.10;;;4.40;;
65597;SDS011;52267;51.984;20.956;2023-07-28T10:28:37;4.70;;;3.30;;
65597;SDS011;52267;51.984;20.956;2023-07-28T10:31:09;6.10;;;4.20;;
65597;SDS011;52267;51.984;20.956;2023-07-28T10:33:45;6.70;;;4.10;;
65597;SDS011;52267;51.984;20.956;2023-07-28T10:44:28;6.20;;;3.80;;
65597;SDS011;52267;51.984;20.956;2023-07-28T10:46:55;4.90;;;3.30;;
65597;SDS011;52267;51.984;20.956;2023-07-28T10:49:26;6.60;;;3.80;;
65597;SDS011;52267;51.984;20.956;2023-07-28T10:51:53;4.40;;;2.70;;
65597;SDS011;52267;51.984;20.956;2023-07-28T10:54:20;6.40;;;3.70;;
65597;SDS011;52267;51.984;20.956;2023-07-28T10:56:47;6.20;;;3.80;;
65597;SDS011;52267;51.984;20.956;2023-07-28T10:59:15;5.90;;;3.60;;
65597;SDS011;52267;51.984;20.956;2023-07-28T11:01:43;6.70;;;3.50;;
65597;SDS011;52267;51.984;20.956;2023-07-28T11:04:17;5.40;;;3.60;;
65597;SDS011;52267;51.984;20.956;2023-07-28T11:06:49;5.70;;;3.90;;
65597;SDS011;52267;51.984;20.956;2023-07-28T11:09:18;6.40;;;4.30;;
65597;SDS011;52267;51.984;20.956;2023-07-28T11:14:17;7.10;;;3.60;;
65597;SDS011;52267;51.984;20.956;2023-07-28T11:16:45;5.80;;;3.70;;
65597;SDS011;52267;51.984;20.956;2023-07-28T11:19:14;4.90;;;3.40;;
65597;SDS011;52267;51.984;20.956;2023-07-28T11:21:42;5.00;;;2.90;;
65597;SDS011;52267;51.984;20.956;2023-07-28T11:24:10;7.60;;;4.20;;
65597;SDS011;52267;51.984;20.956;2023-07-28T11:26:39;4.80;;;3.60;;
65597;SDS011;52267;51.984;20.956;2023-07-28T11:29:07;7.90;;;4.80;;
65597;SDS011;52267;51.984;20.956;2023-07-28T11:31:34;6.10;;;4.10;;
65597;SDS011;52267;51.984;20.956;2023-07-28T11:34:01;5.10;;;3.50;;
65597;SDS011;52267;51.984;20.956;2023-07-28T11:36:30;5.30;;;3.90;;
65597;SDS011;52267;51.984;20.956;2023-07-28T11:39:00;5.90;;;3.50;;
65597;SDS011;52267;51.984;20.956;2023-07-28T11:41:29;5.20;;;3.70;;
65597;SDS011;52267;51.984;20.956;2023-07-28T11:43:56;6.20;;;3.60;;
65597;SDS011;52267;51.984;20.956;2023-07-28T11:49:14;4.70;;;3.40;;
65597;SDS011;52267;51.984;20.956;2023-07-28T11:51:50;5.60;;;3.80;;
65597;SDS011;52267;51.984;20.956;2023-07-28T11:54:21;4.10;;;3.00;;
65597;SDS011;52267;51.984;20.956;2023-07-28T11:56:50;4.40;;;3.40;;
65597;SDS011;52267;51.984;20.956;2023-07-28T11:59:19;4.30;;;3.20;;
65597;SDS011;52267;51.984;20.956;2023-07-28T12:02:00;4.70;;;2.70;;
65597;SDS011;52267;51.984;20.956;2023-07-28T12:04:30;3.50;;;2.20;;
65597;SDS011;52267;51.984;20.956;2023-07-28T12:07:15;4.30;;;2.80;;
65597;SDS011;52267;51.984;20.956;2023-07-28T12:12:13;3.20;;;2.20;;
65597;SDS011;52267;51.984;20.956;2023-07-28T12:14:40;3.40;;;2.20;;
65597;SDS011;52267;51.984;20.956;2023-07-28T12:17:14;3.60;;;2.20;;
65597;SDS011;52267;51.984;20.956;2023-07-28T12:19:54;4.70;;;2.10;;
65597;SDS011;52267;51.984;20.956;2023-07-28T12:22:30;2.90;;;1.80;;
65597;SDS011;52267;51.984;20.956;2023-07-28T12:24:57;3.80;;;1.80;;
65597;SDS011;52267;51.984;20.956;2023-07-28T12:27:24;3.40;;;1.70;;
65597;SDS011;52267;51.984;20.956;2023-07-28T12:29:53;4.20;;;2.10;;
65597;SDS011;52267;51.984;20.956;2023-07-28T12:32:20;3.70;;;1.70;;
65597;SDS011;52267;51.984;20.956;2023-07-28T12:34:49;3.30;;;1.70;;
65597;SDS011;52267;51.984;20.956;2023-07-28T12:37:17;2.90;;;1.80;;
65597;SDS011;52267;51.984;20.956;2023-07-28T12:39:45;3.10;;;1.40;;
65597;SDS011;52267;51.984;20.956;2023-07-28T12:42:13;3.10;;;1.40;;
65597;SDS011;52267;51.984;20.956;2023-07-28T12:44:41;3.90;;;1.80;;
65597;SDS011;52267;51.984;20.956;2023-07-28T12:47:09;2.50;;;1.40;;
65597;SDS011;52267;51.984;20.956;2023-07-28T12:49:39;3.50;;;1.50;;
65597;SDS011;52267;51.984;20.956;2023-07-28T12:52:06;2.70;;;1.50;;
65597;SDS011;52267;51.984;20.956;2023-07-28T12:54:35;2.90;;;1.70;;
65597;SDS011;52267;51.984;20.956;2023-07-28T12:57:02;3.30;;;1.90;;
65597;SDS011;52267;51.984;20.956;2023-07-28T12:59:30;2.70;;;1.40;;
65597;SDS011;52267;51.984;20.956;2023-07-28T13:01:57;2.30;;;1.40;;
65597;SDS011;52267;51.984;20.956;2023-07-28T13:04:24;2.80;;;1.50;;
65597;SDS011;52267;51.984;20.956;2023-07-28T13:06:51;2.60;;;1.40;;
65597;SDS011;52267;51.984;20.956;2023-07-28T13:09:18;3.10;;;1.70;;
65597;SDS011;52267;51.984;20.956;2023-07-28T13:11:45;3.10;;;1.40;;
65597;SDS011;52267;51.984;20.956;2023-07-28T13:14:12;2.90;;;1.40;;
65597;SDS011;52267;51.984;20.956;2023-07-28T13:16:39;2.70;;;1.60;;
65597;SDS011;52267;51.984;20.956;2023-07-28T13:19:06;2.30;;;1.40;;
65597;SDS011;52267;51.984;20.956;2023-07-28T13:21:33;2.10;;;1.20;;
65597;SDS011;52267;51.984;20.956;2023-07-28T13:24:00;3.20;;;1.50;;
65597;SDS011;52267;51.984;20.956;2023-07-28T13:26:27;2.30;;;1.10;;
65597;SDS011;52267;51.984;20.956;2023-07-28T13:28:54;3.50;;;1.30;;
65597;SDS011;52267;51.984;20.956;2023-07-28T13:31:29;3.20;;;1.60;;
65597;SDS011;52267;51.984;20.956;2023-07-28T13:33:56;2.30;;;1.20;;
65597;SDS011;52267;51.984;20.956;2023-07-28T13:36:23;2.50;;;1.40;;
65597;SDS011;52267;51.984;20.956;2023-07-28T13:38:50;2.80;;;1.20;;
65597;SDS011;52267;51.984;20.956;2023-07-28T13:41:18;3.20;;;1.30;;
65597;SDS011;52267;51.984;20.956;2023-07-28T13:43:45;4.00;;;1.30;;
65597;SDS011;52267;51.984;20.956;2023-07-28T13:46:12;3.10;;;1.70;;
65597;SDS011;52267;51.984;20.956;2023-07-28T13:48:39;2.60;;;1.70;;
65597;SDS011;52267;51.984;20.956;2023-07-28T13:51:07;2.90;;;1.40;;
65597;SDS011;52267;51.984;20.956;2023-07-28T13:53:34;2.30;;;1.10;;
65597;SDS011;52267;51.984;20.956;2023-07-28T13:56:01;2.50;;;1.20;;
65597;SDS011;52267;51.984;20.956;2023-07-28T13:58:28;2.90;;;1.30;;
65597;SDS011;52267;51.984;20.956;2023-07-28T14:00:55;1.80;;;1.00;;
65597;SDS011;52267;51.984;20.956;2023-07-28T14:03:22;2.80;;;1.50;;
65597;SDS011;52267;51.984;20.956;2023-07-28T14:05:49;2.10;;;1.40;;
65597;SDS011;52267;51.984;20.956;2023-07-28T14:08:16;2.30;;;1.20;;
65597;SDS011;52267;51.984;20.956;2023-07-28T14:10:45;2.10;;;1.10;;
65597;SDS011;52267;51.984;20.956;2023-07-28T14:13:12;2.50;;;1.20;;
65597;SDS011;52267;51.984;20.956;2023-07-28T14:15:39;2.80;;;1.30;;
65597;SDS011;52267;51.984;20.956;2023-07-28T14:18:06;2.40;;;1.20;;
65597;SDS011;52267;51.984;20.956;2023-07-28T14:20:33;3.10;;;1.50;;
65597;SDS011;52267;51.984;20.956;2023-07-28T14:23:00;3.50;;;1.20;;
65597;SDS011;52267;51.984;20.956;2023-07-28T14:25:28;2.90;;;1.30;;
65597;SDS011;52267;51.984;20.956;2023-07-28T14:27:55;2.40;;;1.20;;
65597;SDS011;52267;51.984;20.956;2023-07-28T14:30:22;2.10;;;1.20;;
65597;SDS011;52267;51.984;20.956;2023-07-28T14:32:49;4.40;;;1.40;;
65597;SDS011;52267;51.984;20.956;2023-07-28T14:35:16;2.10;;;1.20;;
65597;SDS011;52267;51.984;20.956;2023-07-28T14:37:43;2.20;;;1.20;;
65597;SDS011;52267;51.984;20.956;2023-07-28T14:40:11;2.50;;;1.30;;
65597;SDS011;52267;51.984;20.956;2023-07-28T14:42:38;2.60;;;1.30;;
65597;SDS011;52267;51.984;20.956;2023-07-28T14:45:06;2.70;;;1.50;;
65597;SDS011;52267;51.984;20.956;2023-07-28T14:47:33;3.70;;;1.80;;
65597;SDS011;52267;51.984;20.956;2023-07-28T14:50:00;3.50;;;1.50;;
65597;SDS011;52267;51.984;20.956;2023-07-28T14:52:27;2.60;;;1.50;;
65597;SDS011;52267;51.984;20.956;2023-07-28T14:54:54;3.70;;;2.10;;
65597;SDS011;52267;51.984;20.956;2023-07-28T14:57:21;4.30;;;2.10;;
65597;SDS011;52267;51.984;20.956;2023-07-28T14:59:48;3.80;;;1.30;;
65597;SDS011;52267;51.984;20.956;2023-07-28T15:02:15;3.40;;;1.40;;